Time;durP1;ratioP1;P1;durP2;ratioP2;P2;SDS_P1;SDS_P2;PMS_P1;PMS_P2;Temp;Humidity;BMP_temperature;BMP_pressure;BME280_temperature;BME280_humidity;BME280_pressure;Samples;Min_cycle;Max_cycle;Signal;HPM_P1;HPM_P2
2022/04/04 00:00:10;;;;;;;;;;;3.30;99.90;;;;;;5039395;28;19920;-71
2022/04/04 00:02:36;;;;;;;;;;;3.30;99.90;;;;;;5042203;28;20329;-71
2022/04/04 00:05:01;;;;;;;;;;;3.20;99.90;;;;;;5041121;28;20019;-71
2022/04/04 00:07:27;;;;;;;;;;;3.20;99.90;;;;;;5043245;28;19927;-71
2022/04/04 00:09:53;;;;;;;;;;;3.20;99.90;;;;;;5042421;28;20337;-71
2022/04/04 00:12:18;;;;;;;;;;;3.20;99.90;;;;;;5042179;28;20038;-71
2022/04/04 00:14:43;;;;;;;;;;;3.10;99.90;;;;;;5040120;28;19916;-71
2022/04/04 00:17:09;;;;;;;;;;;3.10;99.90;;;;;;5040361;28;20289;-71
2022/04/04 00:19:35;;;;;;;;;;;3.10;99.90;;;;;;5040502;28;19913;-71
2022/04/04 00:22:00;;;;;;;;;;;3.10;99.90;;;;;;5040475;28;19920;-71
2022/04/04 00:24:26;;;;;;;;;;;3.10;99.90;;;;;;5039281;28;19967;-70
2022/04/04 00:26:52;;;;;;;;;;;3.00;99.90;;;;;;5043190;28;19913;-71
2022/04/04 00:29:18;;;;;;;;;;;3.00;99.90;;;;;;5040041;28;20487;-71
2022/04/04 00:31:44;;;;;;;;;;;3.00;99.90;;;;;;5043014;28;20019;-71
2022/04/04 00:34:10;;;;;;;;;;;3.00;99.90;;;;;;5040846;28;20548;-71
2022/04/04 00:36:35;;;;;;;;;;;3.00;99.90;;;;;;5043734;28;19967;-71
2022/04/04 00:39:00;;;;;;;;;;;2.90;99.90;;;;;;5040970;28;19990;-70
2022/04/04 00:41:26;;;;;;;;;;;2.90;99.90;;;;;;5043496;28;19915;-71
2022/04/04 00:43:52;;;;;;;;;;;3.00;99.90;;;;;;5041732;28;20004;-71
2022/04/04 00:46:17;;;;;;;;;;;3.00;99.90;;;;;;5039590;28;19920;-71
2022/04/04 00:48:43;;;;;;;;;;;3.00;99.90;;;;;;5039559;28;19960;-71
2022/04/04 00:51:08;;;;;;;;;;;2.90;99.90;;;;;;5042964;28;19916;-71
2022/04/04 00:53:35;;;;;;;;;;;3.00;99.90;;;;;;5038799;28;19916;-71
2022/04/04 00:56:01;;;;;;;;;;;3.00;99.90;;;;;;5037820;28;20420;-70
2022/04/04 00:58:27;;;;;;;;;;;3.00;99.90;;;;;;5038743;28;20269;-71
2022/04/04 01:00:53;;;;;;;;;;;3.00;99.90;;;;;;5036725;28;20374;-71
2022/04/04 01:03:18;;;;;;;;;;;3.00;99.90;;;;;;5038684;28;19916;-71
2022/04/04 01:05:44;;;;;;;;;;;3.00;99.90;;;;;;5040431;28;20392;-70
2022/04/04 01:08:13;;;;;;;;;;;3.00;99.90;;;;;;5039400;28;19912;-71
2022/04/04 01:10:40;;;;;;;;;;;3.10;99.90;;;;;;5039700;28;19983;-70
2022/04/04 01:13:05;;;;;;;;;;;3.10;99.90;;;;;;5035472;28;19985;-70
2022/04/04 01:15:32;;;;;;;;;;;3.10;99.90;;;;;;5038962;28;20277;-70
2022/04/04 01:18:01;;;;;;;;;;;3.10;99.90;;;;;;5038379;28;19920;-70
2022/04/04 01:20:27;;;;;;;;;;;3.10;99.90;;;;;;5039024;28;20361;-70
2022/04/04 01:22:52;;;;;;;;;;;3.00;99.90;;;;;;5038017;28;19916;-71
2022/04/04 01:25:28;;;;;;;;;;;3.00;99.90;;;;;;5038820;28;19923;-70
2022/04/04 01:27:55;;;;;;;;;;;3.00;99.90;;;;;;5039334;28;20502;-71
2022/04/04 01:30:24;;;;;;;;;;;3.10;99.90;;;;;;5036816;28;19920;-70
2022/04/04 01:32:49;;;;;;;;;;;3.10;99.90;;;;;;5038236;28;19914;-71
2022/04/04 01:35:16;;;;;;;;;;;3.10;99.90;;;;;;5036547;28;19917;-71
2022/04/04 01:37:41;;;;;;;;;;;3.10;99.90;;;;;;5037336;28;19935;-71
2022/04/04 01:40:08;;;;;;;;;;;3.10;99.90;;;;;;5035650;28;20444;-70
2022/04/04 01:42:34;;;;;;;;;;;3.10;99.90;;;;;;5038979;28;19927;-70
2022/04/04 01:45:00;;;;;;;;;;;3.10;99.90;;;;;;5040249;28;20000;-70
2022/04/04 01:47:25;;;;;;;;;;;3.10;99.90;;;;;;5037089;28;19992;-71
2022/04/04 01:49:51;;;;;;;;;;;3.10;99.90;;;;;;5040621;28;19913;-71
2022/04/04 01:52:16;;;;;;;;;;;3.10;99.90;;;;;;5031389;28;19917;-70
2022/04/04 01:54:42;;;;;;;;;;;3.10;99.90;;;;;;5037907;28;19917;-71
2022/04/04 01:57:07;;;;;;;;;;;3.10;99.90;;;;;;5038419;28;20344;-71
2022/04/04 01:59:33;;;;;;;;;;;3.10;99.90;;;;;;5040229;28;19966;-71
2022/04/04 02:01:58;;;;;;;;;;;3.10;99.90;;;;;;5037187;28;19944;-70
2022/04/04 02:04:23;;;;;;;;;;;3.00;99.90;;;;;;5037313;28;19955;-70
2022/04/04 02:06:49;;;;;;;;;;;3.00;99.90;;;;;;5034090;28;19917;-71
2022/04/04 02:09:14;;;;;;;;;;;3.00;99.90;;;;;;5039172;28;19955;-71
2022/04/04 02:11:40;;;;;;;;;;;3.10;99.90;;;;;;5035912;28;20394;-71
2022/04/04 02:14:06;;;;;;;;;;;3.10;99.90;;;;;;5038735;28;20394;-71
2022/04/04 02:16:31;;;;;;;;;;;3.10;99.90;;;;;;5038271;28;19999;-71
2022/04/04 02:18:57;;;;;;;;;;;3.10;99.90;;;;;;5038922;28;19960;-70
2022/04/04 02:21:22;;;;;;;;;;;3.10;99.90;;;;;;5036167;28;20305;-71
2022/04/04 02:23:48;;;;;;;;;;;3.10;99.90;;;;;;5037338;28;19962;-71
2022/04/04 02:26:13;;;;;;;;;;;3.00;99.90;;;;;;5033817;28;19920;-71
2022/04/04 02:28:39;;;;;;;;;;;3.10;99.90;;;;;;5039161;28;19991;-71
2022/04/04 02:31:04;;;;;;;;;;;3.10;99.90;;;;;;5035468;28;19913;-70
2022/04/04 02:33:30;;;;;;;;;;;3.10;99.90;;;;;;5038345;28;19917;-71
2022/04/04 02:35:56;;;;;;;;;;;3.10;99.90;;;;;;5036318;28;19913;-70
2022/04/04 02:38:24;;;;;;;;;;;3.10;99.90;;;;;;5038547;28;21335;-71
2022/04/04 02:40:50;;;;;;;;;;;3.10;99.90;;;;;;5033026;28;19921;-71
2022/04/04 02:43:15;;;;;;;;;;;3.10;99.90;;;;;;5036632;28;20024;-70
2022/04/04 02:45:41;;;;;;;;;;;3.10;99.90;;;;;;5037274;28;20381;-70
2022/04/04 02:48:06;;;;;;;;;;;3.10;99.90;;;;;;5038541;28;19913;-70
2022/04/04 02:50:32;;;;;;;;;;;3.10;99.90;;;;;;5038233;28;20301;-71
2022/04/04 02:52:57;;;;;;;;;;;3.10;99.90;;;;;;5037249;28;20281;-71
2022/04/04 02:58:07;;;;;;;;;;;3.10;99.90;;;;;;5032199;28;19920;-71
2022/04/04 03:00:33;;;;;;;;;;;3.20;99.90;;;;;;5036037;28;20124;-71
2022/04/04 03:02:58;;;;;;;;;;;3.20;99.90;;;;;;5036787;28;19913;-70
2022/04/04 03:05:24;;;;;;;;;;;3.30;99.90;;;;;;5034394;28;19968;-71
2022/04/04 03:07:50;;;;;;;;;;;3.30;99.90;;;;;;5037084;28;19920;-70
2022/04/04 03:10:16;;;;;;;;;;;3.30;99.90;;;;;;5036409;28;19917;-70
2022/04/04 03:12:45;;;;;;;;;;;3.30;99.90;;;;;;5036134;28;19996;-71
2022/04/04 03:15:23;;;;;;;;;;;3.30;99.90;;;;;;5032771;28;19920;-70
2022/04/04 03:17:53;;;;;;;;;;;3.30;99.90;;;;;;5035786;28;20007;-71
2022/04/04 03:20:20;;;;;;;;;;;3.30;99.90;;;;;;5032342;28;19971;-71
2022/04/04 03:22:47;;;;;;;;;;;3.30;99.90;;;;;;5036834;28;19913;-70
2022/04/04 03:25:13;;;;;;;;;;;3.30;99.90;;;;;;5035271;28;20007;-71
2022/04/04 03:27:39;;;;;;;;;;;3.20;99.90;;;;;;5036632;28;19995;-70
2022/04/04 03:30:05;;;;;;;;;;;3.20;99.90;;;;;;5035613;28;19958;-70
2022/04/04 03:32:31;;;;;;;;;;;3.20;99.90;;;;;;5033915;28;20082;-70
2022/04/04 03:34:57;;;;;;;;;;;3.20;99.90;;;;;;5037269;28;20316;-71
2022/04/04 03:37:24;;;;;;;;;;;3.20;99.90;;;;;;5037184;28;19938;-71
2022/04/04 03:39:50;;;;;;;;;;;3.30;99.90;;;;;;5037909;28;19916;-70
2022/04/04 03:42:16;;;;;;;;;;;3.30;99.90;;;;;;5037153;28;20404;-71
2022/04/04 03:44:41;;;;;;;;;;;3.20;99.90;;;;;;5035641;28;20007;-71
2022/04/04 03:47:07;;;;;;;;;;;3.20;99.90;;;;;;5035498;28;19933;-71
2022/04/04 03:49:32;;;;;;;;;;;3.20;99.90;;;;;;5038893;28;20288;-71
2022/04/04 03:51:58;;;;;;;;;;;3.20;99.90;;;;;;5034391;28;20401;-71
2022/04/04 03:54:23;;;;;;;;;;;3.20;99.90;;;;;;5037341;28;19921;-70
2022/04/04 03:56:49;;;;;;;;;;;3.20;99.90;;;;;;5034182;28;19920;-71
2022/04/04 03:59:14;;;;;;;;;;;3.10;99.90;;;;;;5036589;28;19917;-71
2022/04/04 04:01:40;;;;;;;;;;;3.10;99.90;;;;;;5031094;28;19967;-71
2022/04/04 04:04:05;;;;;;;;;;;3.10;99.90;;;;;;5036810;28;19920;-71
2022/04/04 04:06:33;;;;;;;;;;;3.10;99.90;;;;;;5035917;28;19971;-71
2022/04/04 04:08:59;;;;;;;;;;;3.00;99.90;;;;;;5038041;28;19913;-71
2022/04/04 04:11:24;;;;;;;;;;;3.00;99.90;;;;;;5030295;28;20276;-71
2022/04/04 04:13:50;;;;;;;;;;;3.00;99.90;;;;;;5038263;28;20393;-71
2022/04/04 04:16:15;;;;;;;;;;;3.00;99.90;;;;;;5037624;28;19913;-71
2022/04/04 04:18:41;;;;;;;;;;;3.00;99.90;;;;;;5034539;28;20038;-71
2022/04/04 04:21:08;;;;;;;;;;;3.00;99.90;;;;;;5035793;28;20289;-71
2022/04/04 04:23:34;;;;;;;;;;;3.00;99.90;;;;;;5037721;28;20004;-71
2022/04/04 04:26:00;;;;;;;;;;;3.00;99.90;;;;;;5038335;28;20044;-71
2022/04/04 04:28:26;;;;;;;;;;;3.00;99.90;;;;;;5038284;28;19917;-71
2022/04/04 04:30:52;;;;;;;;;;;3.00;99.90;;;;;;5041983;28;19923;-71
2022/04/04 04:33:17;;;;;;;;;;;2.90;99.90;;;;;;5035939;28;19988;-70
2022/04/04 04:35:43;;;;;;;;;;;2.90;99.90;;;;;;5037918;28;19967;-70
2022/04/04 04:38:08;;;;;;;;;;;2.90;99.90;;;;;;5035635;28;20019;-69
2022/04/04 04:40:34;;;;;;;;;;;2.90;99.90;;;;;;5039312;28;19921;-70
2022/04/04 04:43:00;;;;;;;;;;;2.90;99.90;;;;;;5038682;28;20476;-69
2022/04/04 04:45:26;;;;;;;;;;;2.90;99.90;;;;;;5037971;28;20008;-69
2022/04/04 04:47:51;;;;;;;;;;;2.90;99.90;;;;;;5041534;28;19954;-69
2022/04/04 04:50:18;;;;;;;;;;;2.90;99.90;;;;;;5039837;28;19920;-69
2022/04/04 04:52:46;;;;;;;;;;;2.90;99.90;;;;;;5038796;28;19917;-69
2022/04/04 04:55:13;;;;;;;;;;;2.90;99.90;;;;;;5033137;28;19919;-68
2022/04/04 04:57:38;;;;;;;;;;;2.90;99.90;;;;;;5035269;28;20326;-70
2022/04/04 05:00:05;;;;;;;;;;;2.90;99.90;;;;;;5038151;28;20020;-68
2022/04/04 05:02:31;;;;;;;;;;;3.00;99.90;;;;;;5037511;28;20305;-68
2022/04/04 05:04:56;;;;;;;;;;;3.00;99.90;;;;;;5038197;28;20000;-69
2022/04/04 05:07:23;;;;;;;;;;;3.00;99.90;;;;;;5040240;28;20329;-69
2022/04/04 05:09:48;;;;;;;;;;;3.10;99.90;;;;;;5037478;28;20008;-69
2022/04/04 05:12:14;;;;;;;;;;;3.10;99.90;;;;;;5037985;28;20008;-69
2022/04/04 05:14:43;;;;;;;;;;;3.10;99.90;;;;;;5036828;28;20305;-69
2022/04/04 05:17:08;;;;;;;;;;;3.10;99.90;;;;;;5036601;28;20440;-69
2022/04/04 05:19:34;;;;;;;;;;;3.10;99.90;;;;;;5039089;28;20007;-68
2022/04/04 05:21:59;;;;;;;;;;;3.10;99.90;;;;;;5040331;28;19960;-68
2022/04/04 05:24:25;;;;;;;;;;;3.20;99.90;;;;;;5036817;28;20251;-71
2022/04/04 05:26:50;;;;;;;;;;;3.20;99.90;;;;;;5035588;28;19917;-77
2022/04/04 05:29:17;;;;;;;;;;;3.30;99.90;;;;;;5031191;28;19913;-78
2022/04/04 05:31:44;;;;;;;;;;;3.30;99.90;;;;;;5036221;28;20003;-67
2022/04/04 05:34:09;;;;;;;;;;;3.30;99.90;;;;;;5036236;28;19921;-67
2022/04/04 05:36:35;;;;;;;;;;;3.30;99.90;;;;;;5032239;28;20328;-67
2022/04/04 05:39:01;;;;;;;;;;;3.40;99.90;;;;;;5039122;28;19917;-68
2022/04/04 05:41:29;;;;;;;;;;;3.40;99.90;;;;;;5038160;28;19924;-68
2022/04/04 05:43:55;;;;;;;;;;;3.50;99.90;;;;;;5038186;28;19917;-69
2022/04/04 05:46:20;;;;;;;;;;;3.50;99.90;;;;;;5035589;28;20358;-69
2022/04/04 05:48:46;;;;;;;;;;;3.50;99.90;;;;;;5037456;28;19917;-68
2022/04/04 05:51:13;;;;;;;;;;;3.60;99.90;;;;;;5038381;28;19913;-68
2022/04/04 05:53:39;;;;;;;;;;;3.60;99.90;;;;;;5039514;28;19962;-69
2022/04/04 05:56:05;;;;;;;;;;;3.60;99.90;;;;;;5038218;28;19924;-68
2022/04/04 05:58:30;;;;;;;;;;;3.70;99.90;;;;;;5039483;28;20306;-68
2022/04/04 06:00:56;;;;;;;;;;;3.80;99.90;;;;;;5040561;28;20377;-68
2022/04/04 06:03:21;;;;;;;;;;;3.80;99.90;;;;;;5037861;28;20408;-68
2022/04/04 06:05:49;;;;;;;;;;;3.90;99.90;;;;;;5039413;28;19917;-69
2022/04/04 06:08:18;;;;;;;;;;;3.90;99.90;;;;;;5040005;28;19909;-68
2022/04/04 06:10:46;;;;;;;;;;;4.00;99.90;;;;;;5039729;28;19909;-69
2022/04/04 06:13:18;;;;;;;;;;;4.00;99.90;;;;;;5039142;28;20008;-68
2022/04/04 06:15:44;;;;;;;;;;;4.10;99.90;;;;;;5038320;28;19966;-68
2022/04/04 06:18:10;;;;;;;;;;;4.20;99.90;;;;;;5032432;28;20671;-67
2022/04/04 06:20:36;;;;;;;;;;;4.20;99.90;;;;;;5031859;28;19921;-68
2022/04/04 06:23:01;;;;;;;;;;;4.20;99.90;;;;;;5033391;28;19954;-68
2022/04/04 06:25:27;;;;;;;;;;;4.30;99.90;;;;;;5038468;28;20320;-69
2022/04/04 06:27:53;;;;;;;;;;;4.40;99.90;;;;;;5036199;28;19912;-68
2022/04/04 06:30:18;;;;;;;;;;;4.40;99.90;;;;;;5035895;28;20393;-69
2022/04/04 06:32:44;;;;;;;;;;;4.50;99.90;;;;;;5001914;28;20267;-69
2022/04/04 06:35:13;;;;;;;;;;;4.60;99.90;;;;;;5033137;28;20007;-68
2022/04/04 06:37:39;;;;;;;;;;;4.60;99.90;;;;;;5034457;28;19916;-68
2022/04/04 06:40:05;;;;;;;;;;;4.70;99.90;;;;;;5036314;28;20268;-68
2022/04/04 06:42:34;;;;;;;;;;;4.80;99.90;;;;;;5035062;28;19932;-69
2022/04/04 06:44:59;;;;;;;;;;;4.80;99.90;;;;;;5037372;28;19919;-69
2022/04/04 06:47:26;;;;;;;;;;;4.90;99.60;;;;;;5035447;28;19917;-68
2022/04/04 06:49:52;;;;;;;;;;;5.00;99.40;;;;;;5035339;28;19970;-69
2022/04/04 06:52:18;;;;;;;;;;;5.00;99.40;;;;;;5035231;28;20389;-66
2022/04/04 06:54:43;;;;;;;;;;;5.10;99.20;;;;;;5034741;28;20003;-66
2022/04/04 06:57:09;;;;;;;;;;;5.10;99.10;;;;;;5034696;28;19912;-68
2022/04/04 06:59:35;;;;;;;;;;;5.10;98.90;;;;;;5032777;28;19971;-71
2022/04/04 07:02:00;;;;;;;;;;;5.20;98.80;;;;;;5035067;28;19913;-70
2022/04/04 07:04:25;;;;;;;;;;;5.20;98.70;;;;;;5035578;28;20055;-68
2022/04/04 07:06:51;;;;;;;;;;;5.20;98.70;;;;;;5037167;28;19924;-68
2022/04/04 07:09:16;;;;;;;;;;;5.30;98.60;;;;;;5036209;28;19917;-68
2022/04/04 07:11:42;;;;;;;;;;;5.30;98.40;;;;;;5033601;28;19924;-67
2022/04/04 07:14:09;;;;;;;;;;;5.40;98.40;;;;;;5037080;28;19916;-67
2022/04/04 07:16:35;;;;;;;;;;;5.40;98.10;;;;;;5033126;28;20492;-68
2022/04/04 07:19:00;;;;;;;;;;;5.40;98.10;;;;;;5036796;28;19916;-68
2022/04/04 07:21:27;;;;;;;;;;;5.50;98.00;;;;;;5035444;28;20444;-69
2022/04/04 07:23:54;;;;;;;;;;;5.60;97.90;;;;;;5035290;28;19924;-67
2022/04/04 07:26:21;;;;;;;;;;;5.60;97.60;;;;;;5033404;28;19909;-69
2022/04/04 07:28:47;;;;;;;;;;;5.60;97.70;;;;;;5035094;28;20197;-68
2022/04/04 07:31:16;;;;;;;;;;;5.60;97.50;;;;;;5032158;28;19957;-72
2022/04/04 07:33:41;;;;;;;;;;;5.70;97.80;;;;;;5035165;28;20340;-71
2022/04/04 07:36:07;;;;;;;;;;;5.70;97.60;;;;;;5034683;28;19915;-70
2022/04/04 07:38:32;;;;;;;;;;;5.70;97.30;;;;;;5034979;28;19943;-70
2022/04/04 07:40:58;;;;;;;;;;;5.80;97.30;;;;;;5033183;28;19917;-71
2022/04/04 07:43:25;;;;;;;;;;;5.80;97.00;;;;;;5034634;28;19921;-70
2022/04/04 07:45:50;;;;;;;;;;;5.80;96.60;;;;;;5031716;28;20013;-68
2022/04/04 07:48:16;;;;;;;;;;;5.90;96.40;;;;;;5032997;28;20011;-71
2022/04/04 07:50:44;;;;;;;;;;;6.00;96.50;;;;;;5035255;28;19913;-71
2022/04/04 07:53:09;;;;;;;;;;;6.00;96.20;;;;;;5032471;28;19909;-70
2022/04/04 07:55:36;;;;;;;;;;;6.10;96.20;;;;;;5032790;28;19967;-69
2022/04/04 07:58:02;;;;;;;;;;;6.10;96.30;;;;;;5037896;28;19909;-70
2022/04/04 08:00:28;;;;;;;;;;;6.30;96.10;;;;;;5035037;28;19921;-72
2022/04/04 08:02:54;;;;;;;;;;;6.30;95.80;;;;;;5034580;28;19921;-74
2022/04/04 08:05:21;;;;;;;;;;;6.40;95.40;;;;;;5040025;28;19923;-69
2022/04/04 08:07:48;;;;;;;;;;;6.50;95.40;;;;;;5038209;28;19916;-69
2022/04/04 08:10:14;;;;;;;;;;;6.50;95.30;;;;;;5038965;28;19940;-70
2022/04/04 08:12:39;;;;;;;;;;;6.60;95.40;;;;;;5038889;28;20003;-69
2022/04/04 08:15:05;;;;;;;;;;;6.70;95.40;;;;;;5039001;28;20015;-70
2022/04/04 08:17:30;;;;;;;;;;;6.70;95.30;;;;;;5037215;28;20008;-72
2022/04/04 08:19:56;;;;;;;;;;;6.70;95.00;;;;;;5037127;28;19928;-69
2022/04/04 08:22:22;;;;;;;;;;;6.70;94.80;;;;;;5039130;28;19926;-70
2022/04/04 08:24:48;;;;;;;;;;;6.70;94.90;;;;;;5039022;28;20358;-70
2022/04/04 08:27:14;;;;;;;;;;;6.70;94.60;;;;;;5038089;28;19913;-73
2022/04/04 08:29:39;;;;;;;;;;;6.70;94.80;;;;;;5039465;28;20274;-72
2022/04/04 08:32:05;;;;;;;;;;;6.70;94.50;;;;;;5038296;28;19916;-71
2022/04/04 08:34:31;;;;;;;;;;;6.80;94.50;;;;;;5038761;28;19913;-70
2022/04/04 08:36:57;;;;;;;;;;;6.80;94.40;;;;;;5037847;28;19917;-70
2022/04/04 08:39:22;;;;;;;;;;;6.90;94.40;;;;;;5036744;28;20011;-69
2022/04/04 08:41:47;;;;;;;;;;;6.90;94.20;;;;;;5039579;28;20381;-70
2022/04/04 08:44:14;;;;;;;;;;;6.90;93.60;;;;;;5035734;28;20361;-70
2022/04/04 08:46:41;;;;;;;;;;;6.90;93.90;;;;;;5040514;28;19913;-70
2022/04/04 08:49:06;;;;;;;;;;;7.00;94.00;;;;;;5040730;28;19917;-70
2022/04/04 08:51:32;;;;;;;;;;;7.10;93.30;;;;;;5036550;28;20382;-68
2022/04/04 08:53:58;;;;;;;;;;;7.10;93.00;;;;;;5040213;28;20289;-69
2022/04/04 08:56:24;;;;;;;;;;;7.10;93.30;;;;;;5035715;28;20293;-69
2022/04/04 08:58:51;;;;;;;;;;;7.20;92.70;;;;;;5039087;28;19913;-68
2022/04/04 09:01:18;;;;;;;;;;;7.30;92.40;;;;;;5035916;28;19952;-69
2022/04/04 09:03:43;;;;;;;;;;;7.30;91.20;;;;;;5040083;28;20379;-69
2022/04/04 09:06:09;;;;;;;;;;;7.30;91.50;;;;;;5038003;28;19916;-68
2022/04/04 09:08:45;;;;;;;;;;;7.30;91.60;;;;;;5038797;28;20381;-68
2022/04/04 09:11:12;;;;;;;;;;;7.40;91.20;;;;;;5039105;28;19913;-68
2022/04/04 09:13:38;;;;;;;;;;;7.40;91.20;;;;;;5038794;28;19924;-73
2022/04/04 09:16:04;;;;;;;;;;;7.40;91.00;;;;;;5036267;28;19913;-72
2022/04/04 09:18:45;;;;;;;;;;;7.40;90.60;;;;;;5039784;28;19909;-71
2022/04/04 09:21:19;;;;;;;;;;;7.40;90.00;;;;;;5036167;28;19920;-73
2022/04/04 09:23:45;;;;;;;;;;;7.40;89.90;;;;;;5038114;28;19927;-73
2022/04/04 09:26:26;;;;;;;;;;;7.50;89.80;;;;;;5037014;28;19917;-74
2022/04/04 09:28:51;;;;;;;;;;;7.50;90.00;;;;;;5040059;28;19919;-73
2022/04/04 09:31:17;;;;;;;;;;;7.50;89.80;;;;;;5034426;28;19917;-73
2022/04/04 09:33:43;;;;;;;;;;;7.50;89.30;;;;;;5040180;28;20309;-72
2022/04/04 09:36:10;;;;;;;;;;;7.50;88.80;;;;;;5036205;28;19924;-70
2022/04/04 09:38:35;;;;;;;;;;;7.50;88.40;;;;;;5037892;28;20039;-74
2022/04/04 09:41:13;;;;;;;;;;;7.50;88.50;;;;;;5036154;28;20397;-73
2022/04/04 09:43:52;;;;;;;;;;;7.60;88.60;;;;;;5037484;28;19921;-74
2022/04/04 09:46:18;;;;;;;;;;;7.60;89.30;;;;;;5036550;28;19916;-75
2022/04/04 09:49:00;;;;;;;;;;;7.60;88.40;;;;;;5037639;28;20337;-77
2022/04/04 09:51:42;;;;;;;;;;;7.60;88.30;;;;;;5036194;28;20450;-79
2022/04/04 09:54:10;;;;;;;;;;;7.70;87.80;;;;;;5036985;28;19921;-78
2022/04/04 09:56:35;;;;;;;;;;;7.70;87.40;;;;;;5039443;28;19920;-78
2022/04/04 09:59:01;;;;;;;;;;;7.70;87.90;;;;;;5037601;28;19913;-77
2022/04/04 10:01:27;;;;;;;;;;;7.70;86.00;;;;;;5034398;28;19956;-75
2022/04/04 10:03:55;;;;;;;;;;;7.70;86.30;;;;;;5034211;28;19913;-75
2022/04/04 10:06:22;;;;;;;;;;;7.70;85.90;;;;;;5035679;28;19916;-76
2022/04/04 10:08:51;;;;;;;;;;;7.80;86.10;;;;;;5034294;28;20007;-73
2022/04/04 10:11:17;;;;;;;;;;;7.80;85.80;;;;;;5037857;28;19913;-73
2022/04/04 10:13:44;;;;;;;;;;;7.80;87.00;;;;;;5038544;28;19936;-73
2022/04/04 10:16:10;;;;;;;;;;;7.80;86.50;;;;;;5037056;28;20011;-73
2022/04/04 10:18:37;;;;;;;;;;;7.90;88.00;;;;;;5038528;28;20024;-72
2022/04/04 10:21:02;;;;;;;;;;;8.00;88.00;;;;;;5039431;28;19936;-72
2022/04/04 10:23:29;;;;;;;;;;;8.10;88.60;;;;;;5038014;28;20745;-72
2022/04/04 10:25:55;;;;;;;;;;;8.00;88.70;;;;;;5037601;28;19985;-73
2022/04/04 10:28:39;;;;;;;;;;;8.10;89.10;;;;;;5039552;28;19916;-73
2022/04/04 10:31:15;;;;;;;;;;;8.10;89.10;;;;;;5037170;28;19917;-72
2022/04/04 10:33:41;;;;;;;;;;;8.00;90.40;;;;;;5038866;28;19913;-73
2022/04/04 10:36:08;;;;;;;;;;;8.00;90.90;;;;;;5038978;28;19917;-73
2022/04/04 10:38:46;;;;;;;;;;;7.90;90.70;;;;;;5033750;28;19920;-74
2022/04/04 10:41:18;;;;;;;;;;;8.00;91.90;;;;;;5037965;28;19928;-75
2022/04/04 10:43:47;;;;;;;;;;;7.90;92.80;;;;;;5032432;28;19920;-76
2022/04/04 10:46:14;;;;;;;;;;;7.80;93.20;;;;;;5035106;28;19913;-72
2022/04/04 10:48:41;;;;;;;;;;;7.80;93.90;;;;;;5036984;28;19924;-74
2022/04/04 10:51:12;;;;;;;;;;;7.70;94.50;;;;;;5034445;28;20043;-74
2022/04/04 10:53:39;;;;;;;;;;;7.60;95.10;;;;;;5032219;28;19913;-73
2022/04/04 10:56:05;;;;;;;;;;;7.60;95.20;;;;;;5034360;28;19923;-74
2022/04/04 10:58:31;;;;;;;;;;;7.50;95.20;;;;;;5036397;28;20007;-73
2022/04/04 11:01:03;;;;;;;;;;;7.50;95.60;;;;;;5031575;28;20012;-73
2022/04/04 11:03:36;;;;;;;;;;;7.40;95.90;;;;;;5035140;28;19917;-73
2022/04/04 11:09:00;;;;;;;;;;;7.40;96.60;;;;;;5037863;28;20381;-73
2022/04/04 11:11:41;;;;;;;;;;;7.30;96.20;;;;;;5033654;28;19928;-72
2022/04/04 11:14:07;;;;;;;;;;;7.30;95.90;;;;;;5033161;28;19970;-72
2022/04/04 11:16:52;;;;;;;;;;;7.30;96.30;;;;;;5032465;28;19944;-71
2022/04/04 11:19:18;;;;;;;;;;;7.30;96.30;;;;;;5033701;28;19913;-71
2022/04/04 11:21:44;;;;;;;;;;;7.30;96.50;;;;;;5030178;28;19920;-72
2022/04/04 11:24:15;;;;;;;;;;;7.30;96.50;;;;;;5036537;28;19997;-76
2022/04/04 11:26:41;;;;;;;;;;;7.30;96.30;;;;;;5035124;28;19921;-78
2022/04/04 11:29:09;;;;;;;;;;;7.20;96.40;;;;;;5033714;28;20421;-76
2022/04/04 11:31:45;;;;;;;;;;;7.30;96.70;;;;;;5032604;28;19913;-75
2022/04/04 11:34:14;;;;;;;;;;;7.20;97.30;;;;;;5036118;28;20333;-77
2022/04/04 11:36:40;;;;;;;;;;;7.10;97.90;;;;;;5035241;28;19967;-74
2022/04/04 11:39:08;;;;;;;;;;;7.00;98.10;;;;;;5033982;28;19960;-76
2022/04/04 11:41:36;;;;;;;;;;;6.90;98.20;;;;;;5035674;28;19939;-75
2022/04/04 11:44:02;;;;;;;;;;;6.90;98.30;;;;;;5035359;28;19913;-76
2022/04/04 11:46:28;;;;;;;;;;;6.80;98.90;;;;;;5031194;28;19962;-75
2022/04/04 11:48:57;;;;;;;;;;;6.80;99.20;;;;;;5035591;28;20285;-74
2022/04/04 11:51:44;;;;;;;;;;;6.70;99.50;;;;;;5032368;28;20051;-73
2022/04/04 11:54:11;;;;;;;;;;;6.60;99.40;;;;;;5034453;28;19952;-72
2022/04/04 11:56:37;;;;;;;;;;;6.60;99.60;;;;;;5038141;28;20362;-80
2022/04/04 11:59:04;;;;;;;;;;;6.50;99.70;;;;;;5031840;28;19929;-81
2022/04/04 12:01:33;;;;;;;;;;;6.50;99.90;;;;;;5031953;28;19959;-78
2022/04/04 12:04:00;;;;;;;;;;;6.50;99.90;;;;;;5035534;28;19917;-78
2022/04/04 12:06:28;;;;;;;;;;;6.50;99.90;;;;;;5034010;28;20413;-79
2022/04/04 12:08:55;;;;;;;;;;;6.50;99.90;;;;;;5033443;28;20374;-80
2022/04/04 12:11:30;;;;;;;;;;;6.50;99.90;;;;;;5034757;28;19913;-76
2022/04/04 12:14:00;;;;;;;;;;;6.50;99.90;;;;;;5034905;28;19920;-75
2022/04/04 12:16:26;;;;;;;;;;;6.40;99.90;;;;;;5032462;28;19920;-84
2022/04/04 12:18:57;;;;;;;;;;;6.40;99.90;;;;;;5035790;28;19913;-77
2022/04/04 12:21:23;;;;;;;;;;;6.40;99.90;;;;;;5032603;28;19925;-76
2022/04/04 12:26:34;;;;;;;;;;;6.30;99.90;;;;;;5034610;28;19923;-76
2022/04/04 12:29:00;;;;;;;;;;;6.20;99.90;;;;;;5035270;28;19921;-78
2022/04/04 12:31:27;;;;;;;;;;;6.10;99.90;;;;;;5012888;28;20035;-76
2022/04/04 12:33:59;;;;;;;;;;;6.10;99.90;;;;;;5037676;28;19955;-79
2022/04/04 12:36:27;;;;;;;;;;;6.10;99.90;;;;;;5034659;28;19921;-77
2022/04/04 12:38:55;;;;;;;;;;;6.10;99.90;;;;;;5034638;28;19920;-77
2022/04/04 12:41:20;;;;;;;;;;;6.10;99.90;;;;;;5031170;28;19967;-78
2022/04/04 12:43:47;;;;;;;;;;;6.10;99.90;;;;;;5034347;28;19956;-78
2022/04/04 12:46:26;;;;;;;;;;;6.10;99.90;;;;;;5034561;28;19959;-74
2022/04/04 12:48:52;;;;;;;;;;;6.10;99.90;;;;;;5034280;28;19963;-79
2022/04/04 12:51:29;;;;;;;;;;;6.10;99.90;;;;;;5035932;28;19943;-76
2022/04/04 12:53:55;;;;;;;;;;;6.10;99.90;;;;;;5037229;28;20312;-77
2022/04/04 12:56:21;;;;;;;;;;;6.10;99.90;;;;;;5039355;28;19982;-77
2022/04/04 12:59:02;;;;;;;;;;;6.00;99.90;;;;;;5036095;28;20305;-73
2022/04/04 13:01:27;;;;;;;;;;;6.00;99.90;;;;;;5032702;28;19975;-72
2022/04/04 13:03:53;;;;;;;;;;;6.00;99.90;;;;;;5039429;28;20328;-76
2022/04/04 13:06:19;;;;;;;;;;;6.00;99.90;;;;;;5039369;28;20011;-74
2022/04/04 13:08:51;;;;;;;;;;;5.90;99.90;;;;;;5037406;28;19928;-74
2022/04/04 13:11:17;;;;;;;;;;;5.90;99.90;;;;;;5034221;28;19940;-76
2022/04/04 13:13:56;;;;;;;;;;;5.90;99.90;;;;;;5038704;28;19928;-77
2022/04/04 13:16:29;;;;;;;;;;;5.90;99.90;;;;;;5034228;28;19921;-77
2022/04/04 13:18:55;;;;;;;;;;;5.90;99.90;;;;;;5040105;28;19982;-80
2022/04/04 13:21:20;;;;;;;;;;;5.90;99.90;;;;;;5035658;28;19963;-84
2022/04/04 13:23:46;;;;;;;;;;;5.90;99.90;;;;;;5037984;28;19960;-79
2022/04/04 13:26:11;;;;;;;;;;;5.90;99.90;;;;;;5038128;28;19921;-76
2022/04/04 13:28:37;;;;;;;;;;;5.80;99.90;;;;;;5034473;28;19917;-75
2022/04/04 13:31:02;;;;;;;;;;;5.90;99.90;;;;;;5036094;28;20406;-72
2022/04/04 13:33:28;;;;;;;;;;;5.80;99.90;;;;;;5037588;28;20385;-73
2022/04/04 13:35:53;;;;;;;;;;;5.80;99.90;;;;;;5037947;28;19913;-74
2022/04/04 13:38:19;;;;;;;;;;;5.80;99.90;;;;;;5038168;28;20051;-74
2022/04/04 13:40:44;;;;;;;;;;;5.80;99.90;;;;;;5038860;28;19948;-73
2022/04/04 13:43:10;;;;;;;;;;;5.80;99.90;;;;;;5035042;28;19956;-77
2022/04/04 13:45:35;;;;;;;;;;;5.80;99.90;;;;;;5037607;28;19917;-76
2022/04/04 13:48:01;;;;;;;;;;;5.80;99.90;;;;;;5037999;28;20354;-75
2022/04/04 13:50:27;;;;;;;;;;;5.80;99.90;;;;;;5037832;28;19966;-81
2022/04/04 13:52:52;;;;;;;;;;;5.80;99.90;;;;;;5036392;28;19934;-76
2022/04/04 13:55:17;;;;;;;;;;;5.80;99.90;;;;;;5038161;28;20377;-78
2022/04/04 13:57:43;;;;;;;;;;;5.80;99.90;;;;;;5039803;28;20412;-76
2022/04/04 14:00:09;;;;;;;;;;;5.80;99.90;;;;;;5035862;28;20337;-75
2022/04/04 14:02:40;;;;;;;;;;;5.70;99.90;;;;;;5033175;28;20366;-74
2022/04/04 14:05:07;;;;;;;;;;;5.70;99.90;;;;;;5037486;28;19920;-75
2022/04/04 14:07:32;;;;;;;;;;;5.70;99.90;;;;;;5041168;28;20377;-71
2022/04/04 14:09:59;;;;;;;;;;;5.80;99.90;;;;;;5039507;28;19916;-74
2022/04/04 14:12:24;;;;;;;;;;;5.80;99.90;;;;;;5032722;28;20679;-75
2022/04/04 14:14:50;;;;;;;;;;;5.80;99.90;;;;;;5040457;28;19960;-76
2022/04/04 14:17:16;;;;;;;;;;;5.80;99.90;;;;;;5036468;28;19921;-76
2022/04/04 14:19:42;;;;;;;;;;;5.80;99.90;;;;;;5034996;28;20081;-72
2022/04/04 14:22:08;;;;;;;;;;;5.80;99.90;;;;;;5034994;28;19999;-74
2022/04/04 14:24:34;;;;;;;;;;;5.80;99.90;;;;;;5037691;28;19939;-73
2022/04/04 14:26:59;;;;;;;;;;;5.80;99.90;;;;;;5037718;28;20393;-75
2022/04/04 14:29:25;;;;;;;;;;;5.80;99.90;;;;;;5033709;28;19921;-74
2022/04/04 14:31:50;;;;;;;;;;;5.80;99.90;;;;;;5036204;28;19913;-75
2022/04/04 14:34:17;;;;;;;;;;;5.70;99.90;;;;;;5035668;28;19985;-79
2022/04/04 14:36:43;;;;;;;;;;;5.80;99.90;;;;;;5037478;28;19924;-80